createdAt,value
2022-11-22T00:00:44.456Z,0.00
2022-11-22T00:01:44.518Z,0.00
2022-11-22T00:02:44.442Z,0.00
2022-11-22T00:03:44.454Z,0.00
2022-11-22T00:04:44.414Z,0.00
2022-11-22T00:05:44.430Z,0.00
2022-11-22T00:06:44.391Z,0.00
2022-11-22T00:07:44.477Z,0.00
2022-11-22T00:08:44.381Z,0.00
2022-11-22T00:09:44.386Z,0.00
2022-11-22T00:10:44.350Z,0.00
2022-11-22T00:11:44.388Z,0.00
2022-11-22T00:12:44.334Z,0.00
2022-11-22T00:13:44.352Z,0.00
2022-11-22T00:14:44.328Z,0.00
2022-11-22T00:15:44.330Z,0.00
2022-11-22T00:16:44.291Z,0.00
2022-11-22T00:17:44.314Z,0.00
2022-11-22T00:18:44.282Z,0.00
2022-11-22T00:19:44.290Z,0.00
2022-11-22T00:20:44.248Z,0.00
2022-11-22T00:21:44.273Z,0.00
2022-11-22T00:22:45.098Z,0.00
2022-11-22T00:23:44.247Z,0.00
2022-11-22T00:24:44.208Z,0.00
2022-11-22T00:25:44.227Z,0.00
2022-11-22T00:26:44.195Z,0.00
2022-11-22T00:27:44.212Z,0.00
2022-11-22T00:28:44.170Z,0.00
2022-11-22T00:29:44.201Z,0.00
2022-11-22T00:30:44.148Z,0.00
2022-11-22T00:31:44.182Z,0.00
2022-11-22T00:32:44.145Z,0.00
2022-11-22T00:33:44.135Z,0.00
2022-11-22T00:34:44.121Z,0.00
2022-11-22T00:35:44.137Z,0.00
2022-11-22T00:36:44.088Z,0.00
2022-11-22T00:37:44.115Z,0.00
2022-11-22T00:38:44.077Z,0.00
2022-11-22T00:39:44.073Z,0.00
2022-11-22T00:40:44.083Z,0.00
2022-11-22T00:41:44.091Z,0.00
2022-11-22T00:42:44.035Z,0.00
2022-11-22T00:43:44.054Z,0.00
2022-11-22T00:44:44.018Z,0.00
2022-11-22T00:45:44.022Z,0.00
2022-11-22T00:46:43.981Z,0.00
2022-11-22T00:47:44.012Z,0.00
2022-11-22T00:48:44.001Z,0.00
2022-11-22T00:49:43.970Z,0.00
2022-11-22T00:50:43.940Z,0.00
2022-11-22T00:51:43.947Z,0.00
2022-11-22T00:52:43.947Z,0.00
2022-11-22T00:53:43.955Z,0.00
2022-11-22T00:54:43.912Z,0.00
2022-11-22T00:55:43.924Z,0.00
2022-11-22T00:56:43.896Z,0.00
2022-11-22T00:57:43.895Z,0.00
2022-11-22T00:58:43.869Z,0.00
2022-11-22T00:59:43.892Z,0.00
2022-11-22T01:00:43.918Z,0.00
2022-11-22T01:01:43.940Z,0.00
2022-11-22T01:02:43.822Z,0.00
2022-11-22T01:03:43.844Z,0.00
2022-11-22T01:04:43.815Z,0.00
2022-11-22T01:05:43.842Z,0.00
2022-11-22T01:06:43.780Z,0.00
2022-11-22T01:07:43.861Z,0.00
2022-11-22T01:08:43.764Z,0.00
2022-11-22T01:09:43.789Z,0.00
2022-11-22T01:10:43.741Z,0.00
2022-11-22T01:11:43.759Z,0.00
2022-11-22T01:12:43.729Z,0.00
2022-11-22T01:13:43.745Z,0.00
2022-11-22T01:14:43.702Z,0.00
2022-11-22T01:15:43.733Z,0.00
2022-11-22T01:16:43.677Z,0.00
2022-11-22T01:17:43.699Z,0.00
2022-11-22T01:18:42.695Z,0.00
2022-11-22T01:19:43.663Z,0.00
2022-11-22T01:20:43.639Z,0.00
2022-11-22T01:21:43.676Z,0.00
2022-11-22T01:22:43.623Z,0.00
2022-11-22T01:23:43.629Z,0.00
2022-11-22T01:24:43.604Z,0.00
2022-11-22T01:25:43.627Z,0.00
2022-11-22T01:26:43.601Z,0.00
2022-11-22T01:27:43.628Z,0.00
2022-11-22T01:28:43.568Z,0.00
2022-11-22T01:29:43.584Z,0.00
2022-11-22T01:30:43.549Z,0.00
2022-11-22T01:31:43.571Z,0.00
2022-11-22T01:32:43.515Z,0.00
2022-11-22T01:33:43.538Z,0.00
2022-11-22T01:34:43.511Z,0.00
2022-11-22T01:35:43.511Z,0.00
2022-11-22T01:36:43.499Z,0.00
2022-11-22T01:37:43.504Z,0.00
2022-11-22T01:38:43.470Z,0.00
2022-11-22T01:39:43.460Z,0.00
2022-11-22T01:40:43.460Z,0.00
2022-11-22T01:41:43.449Z,0.00
2022-11-22T01:42:43.427Z,0.00
2022-11-22T01:43:43.425Z,0.00
2022-11-22T01:44:43.395Z,0.00
2022-11-22T01:45:43.425Z,0.00
2022-11-22T01:46:43.395Z,0.00
2022-11-22T01:47:43.408Z,0.00
2022-11-22T01:48:43.365Z,0.00
2022-11-22T01:49:43.376Z,0.00
2022-11-22T01:50:43.335Z,0.00
2022-11-22T01:51:43.354Z,0.00
2022-11-22T01:52:43.322Z,0.00
2022-11-22T01:53:43.344Z,0.00
2022-11-22T01:54:43.318Z,0.00
2022-11-22T01:55:43.307Z,0.00
2022-11-22T01:56:43.290Z,0.00
2022-11-22T01:57:43.294Z,0.00
2022-11-22T01:58:43.280Z,0.00
2022-11-22T01:59:43.286Z,0.00
2022-11-22T02:00:43.253Z,0.00
2022-11-22T02:01:43.289Z,0.00
2022-11-22T02:02:43.213Z,0.00
2022-11-22T02:03:43.222Z,0.00
2022-11-22T02:04:43.202Z,0.00
2022-11-22T02:05:43.211Z,0.00
2022-11-22T02:06:43.176Z,0.00
2022-11-22T02:07:43.267Z,0.00
2022-11-22T02:08:43.176Z,0.00
2022-11-22T02:09:43.182Z,0.00
2022-11-22T02:10:43.128Z,0.00
2022-11-22T02:11:43.151Z,0.00
2022-11-22T02:12:43.111Z,0.00
2022-11-22T02:13:43.238Z,0.00
2022-11-22T02:14:43.129Z,0.00
2022-11-22T02:15:43.109Z,0.00
2022-11-22T02:16:43.068Z,0.00
2022-11-22T02:17:43.089Z,0.00
2022-11-22T02:18:43.078Z,0.00
2022-11-22T02:19:43.056Z,0.00
2022-11-22T02:20:43.077Z,0.00
2022-11-22T02:21:43.048Z,0.00
2022-11-22T02:22:43.023Z,0.00
2022-11-22T02:23:43.003Z,0.00
2022-11-22T02:24:43.020Z,0.00
2022-11-22T02:25:42.983Z,0.00
2022-11-22T02:26:43.020Z,0.00
2022-11-22T02:27:43.001Z,0.00
2022-11-22T02:28:42.968Z,0.00
2022-11-22T02:29:42.947Z,0.00
2022-11-22T02:30:42.958Z,0.00
2022-11-22T02:31:42.917Z,0.00
2022-11-22T02:32:42.947Z,0.00
2022-11-22T02:33:42.921Z,0.00
2022-11-22T02:34:42.949Z,0.00
2022-11-22T02:35:42.879Z,0.00
2022-11-22T02:36:42.895Z,0.00
2022-11-22T02:37:42.888Z,0.00
2022-11-22T02:38:42.876Z,0.00
2022-11-22T02:39:42.844Z,0.00
2022-11-22T02:40:42.845Z,0.00
2022-11-22T02:41:42.823Z,0.00
2022-11-22T02:42:42.848Z,0.00
2022-11-22T02:43:42.809Z,0.00
2022-11-22T02:44:42.825Z,0.00
2022-11-22T02:45:42.790Z,0.00
2022-11-22T02:46:42.799Z,0.00
2022-11-22T02:47:42.775Z,0.00
2022-11-22T02:48:42.830Z,0.00
2022-11-22T02:49:42.751Z,0.00
2022-11-22T02:50:42.745Z,0.00
2022-11-22T02:51:42.723Z,0.00
2022-11-22T02:52:42.737Z,0.00
2022-11-22T02:53:42.704Z,0.00
2022-11-22T02:54:42.712Z,0.00
2022-11-22T02:55:42.687Z,0.00
2022-11-22T02:56:42.694Z,0.00
2022-11-22T02:57:42.653Z,0.00
2022-11-22T02:58:42.685Z,0.00
2022-11-22T02:59:42.657Z,0.00
2022-11-22T03:00:42.720Z,0.00
2022-11-22T03:01:42.614Z,0.00
2022-11-22T03:02:42.636Z,0.00
2022-11-22T03:03:42.596Z,0.00
2022-11-22T03:04:42.633Z,0.00
2022-11-22T03:05:42.579Z,0.00
2022-11-22T03:06:42.584Z,0.00
2022-11-22T03:07:42.627Z,0.00
2022-11-22T03:08:42.577Z,0.00
2022-11-22T03:09:42.541Z,0.00
2022-11-22T03:10:41.568Z,0.00
2022-11-22T03:11:42.511Z,0.00
2022-11-22T03:12:42.536Z,0.00
2022-11-22T03:13:42.498Z,0.00
2022-11-22T03:14:42.498Z,0.00
2022-11-22T03:15:42.484Z,0.00
2022-11-22T03:16:42.478Z,0.00
2022-11-22T03:17:42.474Z,0.00
2022-11-22T03:18:42.464Z,0.00
2022-11-22T03:19:42.434Z,0.00
2022-11-22T03:20:42.472Z,0.00
2022-11-22T03:21:42.431Z,0.00
2022-11-22T03:22:42.439Z,0.00
2022-11-22T03:23:42.411Z,0.00
2022-11-22T03:24:42.429Z,0.00
2022-11-22T03:25:42.386Z,0.00
2022-11-22T03:26:42.402Z,0.00
2022-11-22T03:27:42.358Z,0.00
2022-11-22T03:28:42.375Z,0.00
2022-11-22T03:29:42.336Z,0.00
2022-11-22T03:30:42.354Z,0.00
2022-11-22T03:31:42.320Z,0.00
2022-11-22T03:32:42.335Z,0.00
2022-11-22T03:33:42.332Z,0.00
2022-11-22T03:34:42.299Z,0.00
2022-11-22T03:35:42.269Z,0.00
2022-11-22T03:36:42.310Z,0.00
2022-11-22T03:37:42.247Z,0.00
2022-11-22T03:38:42.396Z,0.00
2022-11-22T03:39:42.230Z,0.00
2022-11-22T03:40:42.259Z,0.00
2022-11-22T03:41:42.234Z,0.00
2022-11-22T03:42:42.247Z,0.00
2022-11-22T03:43:42.239Z,0.00
2022-11-22T03:44:42.197Z,0.00
2022-11-22T03:45:42.171Z,0.00
2022-11-22T03:46:42.185Z,0.00
2022-11-22T03:47:42.164Z,0.00
2022-11-22T03:48:42.177Z,0.00
2022-11-22T03:49:42.132Z,0.00
2022-11-22T03:50:42.131Z,0.00
2022-11-22T03:51:42.110Z,0.00
2022-11-22T03:52:42.130Z,0.00
2022-11-22T03:53:42.151Z,0.00
2022-11-22T03:54:42.106Z,0.00
2022-11-22T03:55:42.083Z,0.00
2022-11-22T03:56:42.086Z,0.00
2022-11-22T03:57:42.043Z,0.00
2022-11-22T03:58:42.081Z,0.00
2022-11-22T03:59:42.029Z,0.00
2022-11-22T04:00:42.027Z,0.00
2022-11-22T04:01:42.046Z,0.00
2022-11-22T04:02:42.022Z,0.00
2022-11-22T04:03:42.025Z,0.00
2022-11-22T04:04:41.996Z,0.00
2022-11-22T04:05:41.975Z,0.00
2022-11-22T04:06:41.983Z,0.00
2022-11-22T04:07:42.023Z,0.00
2022-11-22T04:08:42.052Z,0.00
2022-11-22T04:09:41.925Z,0.00
2022-11-22T04:10:41.931Z,0.00
2022-11-22T04:11:41.909Z,0.00
2022-11-22T04:12:41.929Z,0.00
2022-11-22T04:13:41.888Z,0.00
2022-11-22T04:14:41.883Z,0.00
2022-11-22T04:15:41.857Z,0.00
2022-11-22T04:16:41.892Z,0.00
2022-11-22T04:17:41.866Z,0.00
2022-11-22T04:18:41.875Z,0.00
2022-11-22T04:19:41.815Z,0.00
2022-11-22T04:20:41.836Z,0.00
2022-11-22T04:21:41.798Z,0.00
2022-11-22T04:22:41.818Z,0.00
2022-11-22T04:23:41.826Z,0.00
2022-11-22T04:24:41.793Z,0.00
2022-11-22T04:25:41.755Z,0.00
2022-11-22T04:26:41.788Z,0.00
2022-11-22T04:27:41.737Z,0.00
2022-11-22T04:29:08.058Z,0.00
2022-11-22T04:29:41.727Z,0.00
2022-11-22T04:30:41.719Z,0.00
2022-11-22T04:31:41.698Z,0.00
2022-11-22T04:32:41.712Z,0.00
2022-11-22T04:33:41.687Z,0.00
2022-11-22T04:34:41.691Z,0.00
2022-11-22T04:35:41.657Z,0.00
2022-11-22T04:36:41.662Z,0.00
2022-11-22T04:37:41.629Z,0.00
2022-11-22T04:38:41.662Z,0.00
2022-11-22T04:39:41.622Z,0.00
2022-11-22T04:40:41.637Z,0.00
2022-11-22T04:41:41.627Z,0.00
2022-11-22T04:42:41.593Z,0.00
2022-11-22T04:43:41.592Z,0.00
2022-11-22T04:44:41.583Z,0.00
2022-11-22T04:45:41.545Z,0.00
2022-11-22T04:46:41.550Z,0.00
2022-11-22T04:47:43.888Z,0.00
2022-11-22T04:48:41.615Z,0.00
2022-11-22T04:49:41.503Z,0.00
2022-11-22T04:50:41.527Z,0.00
2022-11-22T04:51:41.488Z,0.00
2022-11-22T04:52:41.521Z,0.00
2022-11-22T04:53:41.493Z,0.00
2022-11-22T04:54:41.481Z,0.00
2022-11-22T04:55:41.447Z,0.00
2022-11-22T04:56:41.458Z,0.00
2022-11-22T04:57:41.426Z,0.00
2022-11-22T04:58:41.459Z,0.00
2022-11-22T04:59:41.412Z,0.00
2022-11-22T05:00:41.478Z,0.00
2022-11-22T05:01:41.379Z,0.00
2022-11-22T05:02:41.435Z,0.00
2022-11-22T05:03:41.372Z,0.00
2022-11-22T05:04:44.097Z,0.00
2022-11-22T05:05:41.357Z,0.00
2022-11-22T05:06:41.360Z,0.00
2022-11-22T05:07:41.363Z,0.00
2022-11-22T05:08:41.344Z,0.00
2022-11-22T05:09:41.331Z,0.00
2022-11-22T05:10:41.301Z,0.00
2022-11-22T05:11:41.280Z,0.00
2022-11-22T05:12:41.310Z,0.00
2022-11-22T05:13:41.259Z,0.00
2022-11-22T05:14:41.285Z,0.00
2022-11-22T05:15:41.247Z,0.00
2022-11-22T05:16:41.241Z,0.00
2022-11-22T05:17:41.224Z,0.00
2022-11-22T05:18:41.271Z,0.00
2022-11-22T05:19:44.992Z,0.00
2022-11-22T05:20:41.208Z,0.00
2022-11-22T05:21:41.182Z,0.00
2022-11-22T05:22:41.188Z,0.00
2022-11-22T05:23:41.147Z,0.00
2022-11-22T05:24:41.168Z,0.00
2022-11-22T05:25:41.131Z,0.00
2022-11-22T05:26:41.153Z,0.00
2022-11-22T05:27:41.133Z,0.00
2022-11-22T05:28:41.156Z,0.00
2022-11-22T05:29:41.084Z,0.00
2022-11-22T05:30:41.108Z,0.00
2022-11-22T05:31:41.083Z,0.00
2022-11-22T05:32:41.069Z,0.00
2022-11-22T05:33:41.045Z,0.00
2022-11-22T05:34:41.067Z,0.00
2022-11-22T05:35:41.019Z,0.00
2022-11-22T05:36:41.058Z,0.00
2022-11-22T05:37:41.007Z,0.00
2022-11-22T05:38:41.034Z,0.00
2022-11-22T05:39:40.980Z,0.00
2022-11-22T05:40:41.003Z,0.00
2022-11-22T05:41:40.987Z,0.00
2022-11-22T05:42:40.990Z,0.00
2022-11-22T05:43:40.946Z,0.00
2022-11-22T05:44:40.950Z,0.00
2022-11-22T05:45:40.922Z,0.00
2022-11-22T05:46:40.945Z,0.00
2022-11-22T05:47:40.895Z,0.00
2022-11-22T05:48:40.932Z,0.00
2022-11-22T05:49:40.873Z,0.00
2022-11-22T05:50:40.913Z,0.00
2022-11-22T05:51:40.874Z,0.00
2022-11-22T05:52:40.858Z,0.00
2022-11-22T05:53:40.835Z,0.00
2022-11-22T05:54:40.870Z,0.00
2022-11-22T05:55:40.810Z,0.00
2022-11-22T05:56:40.835Z,0.00
2022-11-22T05:57:40.788Z,0.00
2022-11-22T05:58:40.798Z,0.00
2022-11-22T05:59:44.117Z,0.00
2022-11-22T06:00:40.787Z,0.00
2022-11-22T06:01:40.832Z,0.00
2022-11-22T06:02:40.812Z,0.00
2022-11-22T06:03:40.725Z,0.00
2022-11-22T06:04:40.773Z,0.00
2022-11-22T06:05:40.714Z,0.00
2022-11-22T06:06:40.735Z,0.00
2022-11-22T06:07:40.774Z,0.00
2022-11-22T06:08:40.708Z,0.00
2022-11-22T06:09:40.678Z,0.00
2022-11-22T06:10:40.686Z,0.00
2022-11-22T06:11:40.645Z,0.00
2022-11-22T06:12:40.657Z,0.00
2022-11-22T06:13:40.633Z,0.00
2022-11-22T06:14:43.467Z,1.00
2022-11-22T06:15:40.570Z,1.00
2022-11-22T06:16:40.550Z,1.00
2022-11-22T06:17:40.541Z,1.00
2022-11-22T06:18:40.606Z,0.00
2022-11-22T06:19:40.528Z,2.00
2022-11-22T06:20:40.515Z,1.00
2022-11-22T06:21:40.572Z,0.00
2022-11-22T06:22:40.513Z,1.00
2022-11-22T06:23:40.458Z,1.00
2022-11-22T06:24:40.543Z,0.00
2022-11-22T06:25:40.491Z,0.00
2022-11-22T06:26:40.468Z,1.00
2022-11-22T06:27:40.437Z,1.00
2022-11-22T06:28:40.444Z,4.00
2022-11-22T06:29:40.406Z,4.00
2022-11-22T06:30:40.413Z,3.00
2022-11-22T06:31:40.379Z,1.00
2022-11-22T06:32:40.407Z,2.00
2022-11-22T06:33:40.362Z,4.00
2022-11-22T06:34:40.375Z,4.00
2022-11-22T06:35:40.336Z,3.00
2022-11-22T06:36:40.338Z,3.00
2022-11-22T06:37:40.316Z,5.00
2022-11-22T06:38:40.343Z,2.00
2022-11-22T06:39:40.330Z,1.00
2022-11-22T06:40:40.278Z,1.00
2022-11-22T06:41:40.287Z,2.00
2022-11-22T06:42:40.324Z,5.00
2022-11-22T06:43:45.111Z,2.00
2022-11-22T06:44:40.256Z,6.00
2022-11-22T06:45:40.339Z,3.00
2022-11-22T06:46:40.220Z,4.00
2022-11-22T06:47:40.226Z,4.00
2022-11-22T06:48:40.200Z,5.00
2022-11-22T06:49:40.230Z,6.00
2022-11-22T06:50:40.213Z,7.00
2022-11-22T06:51:40.182Z,9.00
2022-11-22T06:52:40.172Z,10.00
2022-11-22T06:53:47.383Z,12.00
2022-11-22T06:54:40.141Z,13.00
2022-11-22T06:56:01.011Z,15.00
2022-11-22T06:56:40.119Z,16.00
2022-11-22T06:57:40.150Z,18.00
2022-11-22T06:58:40.123Z,20.00
2022-11-22T06:59:40.115Z,21.00
2022-11-22T07:00:40.086Z,23.00
2022-11-22T07:01:40.176Z,24.00
2022-11-22T07:02:40.054Z,25.00
2022-11-22T07:03:40.099Z,26.00
2022-11-22T07:04:56.107Z,27.00
2022-11-22T07:05:40.070Z,29.00
2022-11-22T07:06:40.006Z,31.00
2022-11-22T07:07:40.070Z,33.00
2022-11-22T07:08:40.040Z,34.00
2022-11-22T07:09:40.054Z,34.00
2022-11-22T07:10:39.976Z,35.00
2022-11-22T07:11:39.994Z,36.00
2022-11-22T07:12:40.013Z,39.00
2022-11-22T07:13:39.952Z,41.00
2022-11-22T07:14:39.984Z,42.00
2022-11-22T07:15:40.062Z,43.00
2022-11-22T07:16:39.950Z,44.00
2022-11-22T07:17:39.909Z,46.00
2022-11-22T07:18:39.880Z,47.00
2022-11-22T07:19:39.887Z,46.00
2022-11-22T07:20:39.859Z,46.00
2022-11-22T07:21:39.896Z,45.00
2022-11-22T07:22:39.858Z,46.00
2022-11-22T07:23:39.840Z,47.00
2022-11-22T07:24:39.816Z,49.00
2022-11-22T07:25:39.869Z,53.00
2022-11-22T07:26:39.842Z,54.00
2022-11-22T07:27:39.807Z,54.00
2022-11-22T07:28:39.791Z,56.00
2022-11-22T07:29:39.795Z,59.00
2022-11-22T07:30:43.869Z,63.00
2022-11-22T07:31:39.789Z,69.00
2022-11-22T07:32:39.748Z,74.00
2022-11-22T07:33:39.751Z,77.00
2022-11-22T07:34:39.728Z,78.00
2022-11-22T07:35:39.722Z,80.00
2022-11-22T07:36:39.688Z,80.00
2022-11-22T07:37:39.714Z,81.00
2022-11-22T07:38:39.689Z,84.00
2022-11-22T07:39:39.671Z,84.00
2022-11-22T07:40:39.689Z,99.00
2022-11-22T07:41:39.665Z,104.00
2022-11-22T07:42:39.656Z,90.00
2022-11-22T07:43:39.647Z,78.00
2022-11-22T07:44:46.092Z,80.00
2022-11-22T07:45:39.610Z,71.00
2022-11-22T07:46:39.579Z,77.00
2022-11-22T07:47:39.587Z,91.00
2022-11-22T07:48:39.590Z,82.00
2022-11-22T07:49:39.582Z,61.00
2022-11-22T07:50:39.547Z,63.00
2022-11-22T07:51:39.559Z,65.00
2022-11-22T07:52:39.519Z,67.00
2022-11-22T07:53:39.542Z,70.00
2022-11-22T07:54:39.521Z,69.00
2022-11-22T07:55:39.517Z,68.00
2022-11-22T07:56:39.476Z,62.00
2022-11-22T07:57:39.498Z,65.00
2022-11-22T07:58:39.495Z,70.00
2022-11-22T07:59:39.475Z,80.00
2022-11-22T08:00:39.446Z,104.00
2022-11-22T08:01:39.453Z,82.00
2022-11-22T08:02:39.416Z,69.00
2022-11-22T08:03:39.422Z,73.00
2022-11-22T08:04:39.423Z,81.00
2022-11-22T08:05:39.400Z,93.00
2022-11-22T08:06:39.375Z,107.00
2022-11-22T08:07:39.438Z,125.00
2022-11-22T08:08:39.363Z,135.00
2022-11-22T08:09:39.394Z,165.00
2022-11-22T08:10:39.330Z,133.00
2022-11-22T08:11:39.354Z,135.00
2022-11-22T08:12:39.311Z,146.00
2022-11-22T08:13:39.343Z,163.00
2022-11-22T08:14:39.296Z,180.00
2022-11-22T08:15:39.311Z,190.00
2022-11-22T08:16:39.275Z,194.00
2022-11-22T08:17:39.278Z,197.00
2022-11-22T08:18:39.252Z,198.00
2022-11-22T08:19:39.279Z,199.00
2022-11-22T08:20:39.230Z,204.00
2022-11-22T08:21:39.246Z,210.00
2022-11-22T08:22:39.206Z,212.00
2022-11-22T08:23:39.236Z,215.00
2022-11-22T08:24:39.201Z,217.00
2022-11-22T08:25:39.193Z,221.00
2022-11-22T08:26:39.179Z,226.00
2022-11-22T08:27:39.167Z,234.00
2022-11-22T08:28:39.181Z,246.00
2022-11-22T08:29:39.159Z,261.00
2022-11-22T08:30:39.131Z,278.00
2022-11-22T08:31:39.142Z,302.00
2022-11-22T08:32:39.100Z,326.00
2022-11-22T08:33:39.109Z,344.00
2022-11-22T08:34:44.230Z,349.00
2022-11-22T08:35:39.114Z,349.00
2022-11-22T08:36:39.094Z,349.00
2022-11-22T08:37:39.066Z,352.00
2022-11-22T08:38:39.042Z,364.00
2022-11-22T08:39:39.058Z,392.00
2022-11-22T08:40:41.145Z,424.00
2022-11-22T08:41:39.046Z,452.00
2022-11-22T08:42:38.997Z,478.00
2022-11-22T08:43:39.014Z,462.00
2022-11-22T08:44:38.977Z,570.00
2022-11-22T08:45:38.991Z,457.00
2022-11-22T08:46:38.964Z,467.00
2022-11-22T08:47:38.968Z,432.00
2022-11-22T08:48:38.945Z,440.00
2022-11-22T08:49:38.941Z,457.00
2022-11-22T08:50:38.923Z,470.00
2022-11-22T08:51:38.920Z,476.00
2022-11-22T08:52:38.903Z,553.00
2022-11-22T08:53:38.912Z,613.00
2022-11-22T08:54:38.883Z,432.00
2022-11-22T08:55:38.877Z,444.00
2022-11-22T08:56:38.849Z,454.00
2022-11-22T08:57:38.886Z,509.00
2022-11-22T08:58:38.836Z,517.00
2022-11-22T08:59:38.883Z,449.00
2022-11-22T09:00:38.809Z,457.00
2022-11-22T09:01:38.852Z,684.00
2022-11-22T09:02:38.812Z,681.00
2022-11-22T09:03:38.809Z,722.00
2022-11-22T09:04:38.774Z,519.00
2022-11-22T09:08:24.110Z,347.00
2022-11-22T09:08:31.407Z,262.00
2022-11-22T09:09:37.825Z,273.00
2022-11-22T09:10:29.071Z,289.00
2022-11-22T09:11:29.033Z,326.00
2022-11-22T09:12:29.044Z,368.00
2022-11-22T09:13:29.037Z,389.00
2022-11-22T09:14:29.092Z,413.00
2022-11-22T09:15:28.991Z,514.00
2022-11-22T09:16:29.005Z,651.00
2022-11-22T09:17:28.973Z,658.00
2022-11-22T09:18:28.976Z,677.00
2022-11-22T09:19:29.189Z,734.00
2022-11-22T09:20:28.955Z,820.00
2022-11-22T09:21:28.944Z,821.00
2022-11-22T09:22:28.946Z,1533.00
2022-11-22T09:23:28.910Z,837.00
2022-11-22T09:24:28.956Z,746.00
2022-11-22T09:25:28.932Z,2080.00
2022-11-22T09:26:28.892Z,801.00
2022-11-22T09:27:28.865Z,1121.00
2022-11-22T09:28:28.883Z,977.00
2022-11-22T09:29:29.318Z,2177.00
2022-11-22T09:30:28.872Z,750.00
2022-11-22T09:31:28.826Z,950.00
2022-11-22T09:32:33.510Z,1141.00
2022-11-22T09:33:28.807Z,1063.00
2022-11-22T09:34:28.810Z,955.00
2022-11-22T09:35:28.841Z,1443.00
2022-11-22T09:36:28.800Z,1020.00
2022-11-22T09:37:28.762Z,840.00
2022-11-22T09:38:28.778Z,1124.00
2022-11-22T09:39:29.017Z,843.00
2022-11-22T09:40:28.783Z,824.00
2022-11-22T09:41:28.731Z,923.00
2022-11-22T09:42:28.752Z,771.00
2022-11-22T09:43:28.699Z,701.00
2022-11-22T09:44:28.716Z,647.00
2022-11-22T09:45:28.698Z,653.00
2022-11-22T09:46:28.713Z,663.00
2022-11-22T09:47:28.656Z,673.00
2022-11-22T09:48:28.648Z,687.00
2022-11-22T09:49:29.287Z,682.00
2022-11-22T09:50:28.659Z,686.00
2022-11-22T09:51:28.645Z,727.00
2022-11-22T09:52:28.631Z,712.00
2022-11-22T09:53:28.591Z,704.00
2022-11-22T09:54:28.662Z,727.00
2022-11-22T09:55:28.569Z,704.00
2022-11-22T09:56:28.576Z,717.00
2022-11-22T09:57:28.574Z,762.00
2022-11-22T09:58:28.572Z,740.00
2022-11-22T09:59:28.815Z,713.00
2022-11-22T10:00:28.545Z,743.00
2022-11-22T10:01:28.564Z,732.00
2022-11-22T10:02:28.525Z,720.00
2022-11-22T10:03:28.519Z,728.00
2022-11-22T10:04:28.486Z,737.00
2022-11-22T10:05:28.463Z,783.00
2022-11-22T10:06:28.480Z,782.00
2022-11-22T10:07:28.496Z,763.00
2022-11-22T10:08:28.445Z,794.00
2022-11-22T10:09:28.847Z,909.00
2022-11-22T10:10:28.425Z,886.00
2022-11-22T10:11:32.173Z,681.00
2022-11-22T10:12:28.412Z,1003.00
2022-11-22T10:13:28.430Z,832.00
2022-11-22T10:14:28.413Z,627.00
2022-11-22T10:15:28.359Z,719.00
2022-11-22T10:16:28.379Z,659.00
2022-11-22T10:17:28.344Z,941.00
2022-11-22T10:18:28.354Z,983.00
2022-11-22T10:19:28.751Z,616.00
2022-11-22T10:20:28.352Z,461.00
2022-11-22T10:21:28.296Z,546.00
2022-11-22T10:22:28.313Z,629.00
2022-11-22T10:23:28.275Z,700.00
2022-11-22T10:24:28.293Z,741.00
2022-11-22T10:25:28.261Z,874.00
2022-11-22T10:26:28.273Z,819.00
2022-11-22T10:27:28.232Z,812.00
2022-11-22T10:28:28.250Z,624.00
2022-11-22T10:29:28.632Z,526.00
2022-11-22T10:30:28.239Z,584.00
2022-11-22T10:31:28.191Z,546.00
2022-11-22T10:32:28.192Z,595.00
2022-11-22T10:33:28.166Z,633.00
2022-11-22T10:34:28.187Z,765.00
2022-11-22T10:35:28.145Z,662.00
2022-11-22T10:36:28.159Z,632.00
2022-11-22T10:37:28.124Z,681.00
2022-11-22T10:38:28.143Z,730.00
2022-11-22T10:39:34.107Z,735.00
2022-11-22T10:40:28.114Z,749.00
2022-11-22T10:41:28.100Z,759.00
2022-11-22T10:42:28.139Z,752.00
2022-11-22T10:43:28.060Z,719.00
2022-11-22T10:44:28.081Z,731.00
2022-11-22T10:45:28.040Z,726.00
2022-11-22T10:46:28.064Z,653.00
2022-11-22T10:47:32.985Z,563.00
2022-11-22T10:48:28.029Z,556.00
2022-11-22T10:49:28.241Z,499.00
2022-11-22T10:50:28.016Z,541.00
2022-11-22T10:51:27.977Z,541.00
2022-11-22T10:52:28.028Z,517.00
2022-11-22T10:53:27.968Z,555.00
2022-11-22T10:54:27.952Z,526.00
2022-11-22T10:55:27.963Z,552.00
2022-11-22T10:56:27.925Z,576.00
2022-11-22T10:57:27.934Z,399.00
2022-11-22T10:58:27.934Z,419.00
2022-11-22T10:59:29.077Z,453.00
2022-11-22T11:00:27.884Z,456.00
2022-11-22T11:01:27.944Z,453.00
2022-11-22T11:02:27.889Z,478.00
2022-11-22T11:03:27.877Z,556.00
2022-11-22T11:04:27.859Z,584.00
2022-11-22T11:05:27.844Z,515.00
2022-11-22T11:06:50.033Z,485.00
2022-11-22T11:07:27.890Z,558.00
2022-11-22T11:08:47.819Z,571.00
2022-11-22T11:10:34.049Z,527.00
2022-11-22T11:11:27.786Z,545.00
2022-11-22T11:12:32.715Z,539.00
2022-11-22T11:13:26.814Z,511.00
2022-11-22T11:14:28.042Z,502.00
2022-11-22T11:15:27.761Z,499.00
2022-11-22T11:16:27.735Z,526.00
2022-11-22T11:17:27.770Z,496.00
2022-11-22T11:18:27.721Z,500.00
2022-11-22T11:19:27.711Z,524.00
2022-11-22T11:20:27.722Z,521.00
2022-11-22T11:21:27.693Z,515.00
2022-11-22T11:22:58.727Z,481.00
2022-11-22T11:23:27.702Z,426.00
2022-11-22T11:24:27.743Z,405.00
2022-11-22T11:25:27.644Z,428.00
2022-11-22T11:26:28.324Z,476.00
2022-11-22T11:27:27.009Z,482.00
2022-11-22T11:28:30.221Z,482.00
2022-11-22T11:29:37.213Z,470.00
2022-11-22T11:30:27.641Z,448.00
2022-11-22T11:31:28.766Z,434.00
2022-11-22T11:32:37.599Z,441.00
2022-11-22T11:33:27.562Z,445.00
2022-11-22T11:34:27.727Z,439.00
2022-11-22T11:35:27.526Z,438.00
2022-11-22T11:36:27.534Z,436.00
2022-11-22T11:37:27.519Z,437.00
2022-11-22T11:38:27.479Z,426.00
2022-11-22T11:39:27.808Z,402.00
2022-11-22T11:40:27.457Z,387.00
2022-11-22T11:41:27.482Z,380.00
2022-11-22T11:42:27.458Z,376.00
2022-11-22T11:43:27.447Z,353.00
2022-11-22T11:44:27.621Z,355.00
2022-11-22T11:45:27.434Z,366.00
2022-11-22T11:46:27.395Z,378.00
2022-11-22T11:47:27.435Z,411.00
2022-11-22T11:48:27.404Z,441.00
2022-11-22T11:49:27.380Z,425.00
2022-11-22T11:50:27.444Z,398.00
2022-11-22T11:51:27.356Z,385.00
2022-11-22T11:52:27.352Z,393.00
2022-11-22T11:53:27.457Z,386.00
2022-11-22T11:54:27.310Z,392.00
2022-11-22T11:55:27.396Z,401.00
2022-11-22T11:56:27.292Z,412.00
2022-11-22T11:57:27.296Z,424.00
2022-11-22T11:58:27.292Z,444.00
2022-11-22T11:59:27.318Z,478.00
2022-11-22T12:00:27.262Z,543.00
2022-11-22T12:01:27.274Z,674.00
2022-11-22T12:02:27.312Z,835.00
2022-11-22T12:03:27.253Z,896.00
2022-11-22T12:04:27.270Z,968.00
2022-11-22T12:05:27.225Z,938.00
2022-11-22T12:06:27.189Z,884.00
2022-11-22T12:07:27.281Z,868.00
2022-11-22T12:08:27.161Z,1257.00
2022-11-22T12:09:27.190Z,878.00
2022-11-22T12:10:27.175Z,921.00
2022-11-22T12:11:27.146Z,984.00
2022-11-22T12:12:27.121Z,1032.00
2022-11-22T12:13:27.140Z,1461.00
2022-11-22T12:14:37.752Z,931.00
2022-11-22T12:15:27.132Z,946.00
2022-11-22T12:16:27.088Z,938.00
2022-11-22T12:17:27.099Z,996.00
2022-11-22T12:18:27.055Z,1004.00
2022-11-22T12:19:27.080Z,885.00
2022-11-22T12:20:27.062Z,1230.00
2022-11-22T12:21:27.042Z,790.00
2022-11-22T12:22:48.151Z,833.00
2022-11-22T12:23:27.037Z,954.00
2022-11-22T12:48:23.138Z,981.00
2022-11-22T12:48:28.392Z,954.00
2022-11-22T12:48:33.548Z,1992.00
2022-11-22T12:49:33.474Z,357.00
2022-11-22T12:50:33.450Z,350.00
2022-11-22T12:51:33.460Z,359.00
2022-11-22T12:52:33.500Z,342.00
2022-11-22T12:53:33.433Z,339.00
2022-11-22T12:54:33.617Z,336.00
2022-11-22T12:55:33.410Z,337.00
2022-11-22T12:56:34.205Z,337.00
2022-11-22T12:57:33.384Z,337.00
2022-11-22T12:58:33.351Z,339.00
2022-11-22T12:59:33.372Z,354.00
2022-11-22T13:00:33.336Z,351.00
2022-11-22T13:01:33.420Z,322.00
2022-11-22T13:02:33.318Z,318.00
2022-11-22T13:03:33.324Z,321.00
2022-11-22T13:04:33.612Z,320.00
2022-11-22T13:05:33.306Z,317.00
2022-11-22T13:06:33.276Z,316.00
2022-11-22T13:07:33.371Z,313.00
2022-11-22T13:08:33.251Z,320.00
2022-11-22T13:09:33.265Z,310.00
2022-11-22T13:10:33.225Z,296.00
2022-11-22T13:11:33.227Z,294.00
2022-11-22T13:12:33.209Z,291.00
2022-11-22T13:13:33.215Z,288.00
2022-11-22T13:14:33.480Z,284.00
2022-11-22T13:15:33.172Z,287.00
2022-11-22T13:16:33.159Z,285.00
2022-11-22T13:17:33.187Z,281.00
2022-11-22T13:18:33.138Z,274.00
2022-11-22T13:19:33.164Z,274.00
2022-11-22T13:20:34.907Z,271.00
2022-11-22T13:21:33.126Z,270.00